sensor_id;sensor_type;location;lat;lon;timestamp;pressure;altitude;pressure_sealevel;temperature;humidity
74722;BME280;63470;49.826;6.740;2022-11-15T00:01:26;99707.89;;;9.75;66.81
74722;BME280;63470;49.826;6.740;2022-11-15T00:03:56;99707.69;;;9.76;66.78
74722;BME280;63470;49.826;6.740;2022-11-15T00:06:27;99706.62;;;9.77;66.75
74722;BME280;63470;49.826;6.740;2022-11-15T00:08:58;99704.22;;;9.77;66.71
74722;BME280;63470;49.826;6.740;2022-11-15T00:11:27;99706.36;;;9.81;66.75
74722;BME280;63470;49.826;6.740;2022-11-15T00:13:58;99698.66;;;9.83;66.62
74722;BME280;63470;49.826;6.740;2022-11-15T00:16:29;99700.47;;;9.83;66.53
74722;BME280;63470;49.826;6.740;2022-11-15T00:18:59;99700.22;;;9.83;66.59
74722;BME280;63470;49.826;6.740;2022-11-15T00:21:30;99696.89;;;9.85;66.58
74722;BME280;63470;49.826;6.740;2022-11-15T00:24:00;99700.55;;;9.87;66.61
74722;BME280;63470;49.826;6.740;2022-11-15T00:26:30;99696.62;;;9.90;66.56
74722;BME280;63470;49.826;6.740;2022-11-15T00:29:01;99703.70;;;9.93;66.46
74722;BME280;63470;49.826;6.740;2022-11-15T00:31:34;99700.53;;;9.95;66.43
74722;BME280;63470;49.826;6.740;2022-11-15T00:34:02;99697.07;;;9.98;66.45
74722;BME280;63470;49.826;6.740;2022-11-15T00:36:33;99698.47;;;9.99;66.44
74722;BME280;63470;49.826;6.740;2022-11-15T00:39:04;99698.92;;;10.01;66.50
74722;BME280;63470;49.826;6.740;2022-11-15T00:41:33;99698.17;;;10.01;66.58
74722;BME280;63470;49.826;6.740;2022-11-15T00:44:06;99696.97;;;10.04;66.57
74722;BME280;63470;49.826;6.740;2022-11-15T00:46:34;99695.81;;;10.04;66.58
74722;BME280;63470;49.826;6.740;2022-11-15T00:49:05;99696.15;;;10.04;66.66
74722;BME280;63470;49.826;6.740;2022-11-15T00:51:37;99688.11;;;10.05;66.65
74722;BME280;63470;49.826;6.740;2022-11-15T00:54:06;99681.72;;;10.07;66.69
74722;BME280;63470;49.826;6.740;2022-11-15T00:56:38;99684.88;;;10.10;66.73
74722;BME280;63470;49.826;6.740;2022-11-15T00:59:10;99683.91;;;10.14;66.70
74722;BME280;63470;49.826;6.740;2022-11-15T01:01:40;99678.97;;;10.17;66.65
74722;BME280;63470;49.826;6.740;2022-11-15T01:04:10;99676.37;;;10.18;66.60
74722;BME280;63470;49.826;6.740;2022-11-15T01:06:39;99680.28;;;10.20;66.56
74722;BME280;63470;49.826;6.740;2022-11-15T01:09:09;99680.76;;;10.22;66.56
74722;BME280;63470;49.826;6.740;2022-11-15T01:11:39;99676.92;;;10.24;66.60
74722;BME280;63470;49.826;6.740;2022-11-15T01:14:13;99673.50;;;10.24;66.60
74722;BME280;63470;49.826;6.740;2022-11-15T01:16:43;99670.66;;;10.26;66.61
74722;BME280;63470;49.826;6.740;2022-11-15T01:19:14;99666.88;;;10.29;66.58
74722;BME280;63470;49.826;6.740;2022-11-15T01:21:44;99669.04;;;10.36;66.55
74722;BME280;63470;49.826;6.740;2022-11-15T01:24:12;99669.97;;;10.42;66.56
74722;BME280;63470;49.826;6.740;2022-11-15T01:26:45;99669.70;;;10.49;66.54
74722;BME280;63470;49.826;6.740;2022-11-15T01:29:12;99668.72;;;10.55;66.50
74722;BME280;63470;49.826;6.740;2022-11-15T01:31:43;99663.11;;;10.62;66.33
74722;BME280;63470;49.826;6.740;2022-11-15T01:34:13;99662.94;;;10.65;66.28
74722;BME280;63470;49.826;6.740;2022-11-15T01:36:44;99662.14;;;10.68;66.38
74722;BME280;63470;49.826;6.740;2022-11-15T01:39:17;99662.31;;;10.73;66.39
74722;BME280;63470;49.826;6.740;2022-11-15T01:41:45;99661.23;;;10.80;66.36
74722;BME280;63470;49.826;6.740;2022-11-15T01:44:39;99660.67;;;10.86;66.25
74722;BME280;63470;49.826;6.740;2022-11-15T01:46:48;99661.22;;;10.90;66.18
74722;BME280;63470;49.826;6.740;2022-11-15T01:49:20;99663.88;;;10.95;66.18
74722;BME280;63470;49.826;6.740;2022-11-15T01:51:50;99658.09;;;11.02;66.18
74722;BME280;63470;49.826;6.740;2022-11-15T01:54:22;99658.25;;;11.09;66.12
74722;BME280;63470;49.826;6.740;2022-11-15T01:56:55;99660.92;;;11.16;66.08
74722;BME280;63470;49.826;6.740;2022-11-15T01:59:21;99656.56;;;11.25;66.03
74722;BME280;63470;49.826;6.740;2022-11-15T02:01:48;99656.80;;;11.31;65.99
74722;BME280;63470;49.826;6.740;2022-11-15T02:04:24;99653.20;;;11.38;66.01
74722;BME280;63470;49.826;6.740;2022-11-15T02:06:53;99648.70;;;11.43;66.00
74722;BME280;63470;49.826;6.740;2022-11-15T02:09:23;99647.54;;;11.48;65.97
74722;BME280;63470;49.826;6.740;2022-11-15T02:11:54;99644.80;;;11.54;65.99
74722;BME280;63470;49.826;6.740;2022-11-15T02:14:26;99646.26;;;11.61;65.94
74722;BME280;63470;49.826;6.740;2022-11-15T02:19:40;99644.59;;;11.71;65.98
74722;BME280;63470;49.826;6.740;2022-11-15T02:22:05;99644.40;;;11.74;66.04
74722;BME280;63470;49.826;6.740;2022-11-15T02:32:06;99638.91;;;11.86;66.08
74722;BME280;63470;49.826;6.740;2022-11-15T02:34:47;99640.34;;;11.91;66.06
74722;BME280;63470;49.826;6.740;2022-11-15T02:37:16;99640.64;;;11.94;66.04
74722;BME280;63470;49.826;6.740;2022-11-15T02:39:35;99640.02;;;11.98;66.04
74722;BME280;63470;49.826;6.740;2022-11-15T02:42:03;99642.59;;;12.01;66.04
74722;BME280;63470;49.826;6.740;2022-11-15T02:44:39;99637.48;;;12.02;66.06
74722;BME280;63470;49.826;6.740;2022-11-15T02:47:16;99633.41;;;12.06;66.01
74722;BME280;63470;49.826;6.740;2022-11-15T02:49:29;99637.47;;;12.08;65.99
74722;BME280;63470;49.826;6.740;2022-11-15T02:52:00;99633.29;;;12.08;65.97
74722;BME280;63470;49.826;6.740;2022-11-15T02:54:30;99629.47;;;12.02;66.07
74722;BME280;63470;49.826;6.740;2022-11-15T02:57:11;99628.71;;;11.92;66.25
74722;BME280;63470;49.826;6.740;2022-11-15T03:09:35;99633.27;;;11.88;66.18
74722;BME280;63470;49.826;6.740;2022-11-15T03:12:14;99629.02;;;11.74;66.32
74722;BME280;63470;49.826;6.740;2022-11-15T03:14:34;99627.91;;;11.59;66.57
74722;BME280;63470;49.826;6.740;2022-11-15T03:17:24;99624.30;;;11.46;66.72
74722;BME280;63470;49.826;6.740;2022-11-15T03:19:46;99627.27;;;11.33;66.87
74722;BME280;63470;49.826;6.740;2022-11-15T03:22:04;99624.33;;;11.19;67.01
74722;BME280;63470;49.826;6.740;2022-11-15T03:24:37;99623.18;;;11.07;67.08
74722;BME280;63470;49.826;6.740;2022-11-15T03:27:04;99623.08;;;10.99;67.21
74722;BME280;63470;49.826;6.740;2022-11-15T03:29:37;99616.73;;;10.96;67.30
74722;BME280;63470;49.826;6.740;2022-11-15T03:32:09;99612.42;;;10.94;67.28
74722;BME280;63470;49.826;6.740;2022-11-15T03:34:53;99609.62;;;10.87;67.24
74722;BME280;63470;49.826;6.740;2022-11-15T03:37:04;99606.27;;;10.80;67.23
74722;BME280;63470;49.826;6.740;2022-11-15T03:39:34;99604.53;;;10.71;67.27
74722;BME280;63470;49.826;6.740;2022-11-15T03:42:27;99601.16;;;10.61;67.33
74722;BME280;63470;49.826;6.740;2022-11-15T03:44:42;99601.81;;;10.61;67.32
74722;BME280;63470;49.826;6.740;2022-11-15T03:47:16;99600.27;;;10.64;67.19
74722;BME280;63470;49.826;6.740;2022-11-15T03:49:39;99599.76;;;10.68;67.13
74722;BME280;63470;49.826;6.740;2022-11-15T03:52:10;99597.75;;;10.72;67.09
74722;BME280;63470;49.826;6.740;2022-11-15T03:54:36;99603.58;;;10.76;67.04
74722;BME280;63470;49.826;6.740;2022-11-15T03:57:10;99603.12;;;10.77;67.05
74722;BME280;63470;49.826;6.740;2022-11-15T03:59:39;99605.53;;;10.74;67.08
74722;BME280;63470;49.826;6.740;2022-11-15T04:02:08;99610.33;;;10.67;67.12
74722;BME280;63470;49.826;6.740;2022-11-15T04:04:41;99608.38;;;10.60;67.18
74722;BME280;63470;49.826;6.740;2022-11-15T04:07:12;99611.20;;;10.49;67.29
74722;BME280;63470;49.826;6.740;2022-11-15T04:10:03;99611.98;;;10.41;67.39
74722;BME280;63470;49.826;6.740;2022-11-15T04:12:09;99613.38;;;10.35;67.42
74722;BME280;63470;49.826;6.740;2022-11-15T04:14:50;99611.19;;;10.27;67.43
74722;BME280;63470;49.826;6.740;2022-11-15T04:17:12;99613.70;;;10.18;67.50
74722;BME280;63470;49.826;6.740;2022-11-15T04:20:23;99614.92;;;10.13;67.58
74722;BME280;63470;49.826;6.740;2022-11-15T04:22:43;99611.55;;;10.12;67.63
74722;BME280;63470;49.826;6.740;2022-11-15T04:24:44;99615.42;;;10.20;67.53
74722;BME280;63470;49.826;6.740;2022-11-15T04:27:14;99607.27;;;10.29;67.45
74722;BME280;63470;49.826;6.740;2022-11-15T04:29:44;99609.44;;;10.41;67.33
74722;BME280;63470;49.826;6.740;2022-11-15T04:32:15;99607.45;;;10.51;67.28
74722;BME280;63470;49.826;6.740;2022-11-15T04:34:48;99602.10;;;10.63;67.18
74722;BME280;63470;49.826;6.740;2022-11-15T04:37:16;99595.75;;;10.69;67.08
74722;BME280;63470;49.826;6.740;2022-11-15T04:39:45;99600.02;;;10.73;67.04
74722;BME280;63470;49.826;6.740;2022-11-15T04:42:18;99601.52;;;10.76;67.05
74722;BME280;63470;49.826;6.740;2022-11-15T04:44:49;99600.88;;;10.78;66.97
74722;BME280;63470;49.826;6.740;2022-11-15T04:47:17;99600.52;;;10.85;66.90
74722;BME280;63470;49.826;6.740;2022-11-15T04:49:50;99596.70;;;10.92;66.72
74722;BME280;63470;49.826;6.740;2022-11-15T04:52:21;99602.64;;;10.92;66.66
74722;BME280;63470;49.826;6.740;2022-11-15T04:54:51;99602.02;;;10.88;66.78
74722;BME280;63470;49.826;6.740;2022-11-15T04:57:21;99601.67;;;10.85;66.88
74722;BME280;63470;49.826;6.740;2022-11-15T04:59:52;99601.32;;;10.86;66.95
74722;BME280;63470;49.826;6.740;2022-11-15T05:02:22;99605.30;;;10.91;66.97
74722;BME280;63470;49.826;6.740;2022-11-15T05:04:50;99601.78;;;10.97;66.97
74722;BME280;63470;49.826;6.740;2022-11-15T05:07:20;99600.81;;;11.05;66.82
74722;BME280;63470;49.826;6.740;2022-11-15T05:09:51;99601.92;;;11.12;66.71
74722;BME280;63470;49.826;6.740;2022-11-15T05:12:23;99609.91;;;11.19;66.65
74722;BME280;63470;49.826;6.740;2022-11-15T05:14:52;99607.77;;;11.24;66.60
74722;BME280;63470;49.826;6.740;2022-11-15T05:17:27;99607.97;;;11.29;66.62
74722;BME280;63470;49.826;6.740;2022-11-15T05:19:55;99609.67;;;11.33;66.59
74722;BME280;63470;49.826;6.740;2022-11-15T05:22:23;99607.25;;;11.36;66.55
74722;BME280;63470;49.826;6.740;2022-11-15T05:24:54;99611.23;;;11.38;66.53
74722;BME280;63470;49.826;6.740;2022-11-15T05:27:24;99610.80;;;11.41;66.51
74722;BME280;63470;49.826;6.740;2022-11-15T05:29:55;99610.78;;;11.42;66.50
74722;BME280;63470;49.826;6.740;2022-11-15T05:32:26;99606.66;;;11.42;66.53
74722;BME280;63470;49.826;6.740;2022-11-15T05:34:58;99609.05;;;11.42;66.57
74722;BME280;63470;49.826;6.740;2022-11-15T05:37:28;99611.58;;;11.41;66.60
74722;BME280;63470;49.826;6.740;2022-11-15T05:39:56;99606.22;;;11.40;66.64
74722;BME280;63470;49.826;6.740;2022-11-15T05:42:29;99601.66;;;11.38;66.68
74722;BME280;63470;49.826;6.740;2022-11-15T05:45:02;99606.34;;;11.36;66.75
74722;BME280;63470;49.826;6.740;2022-11-15T05:47:33;99605.84;;;11.36;66.75
74722;BME280;63470;49.826;6.740;2022-11-15T05:49:58;99600.34;;;11.37;66.73
74722;BME280;63470;49.826;6.740;2022-11-15T05:52:31;99605.76;;;11.36;66.73
74722;BME280;63470;49.826;6.740;2022-11-15T05:55:00;99608.84;;;11.38;66.71
74722;BME280;63470;49.826;6.740;2022-11-15T05:57:33;99607.53;;;11.41;66.66
74722;BME280;63470;49.826;6.740;2022-11-15T06:00:04;99607.58;;;11.41;66.63
74722;BME280;63470;49.826;6.740;2022-11-15T06:02:31;99609.47;;;11.42;66.62
74722;BME280;63470;49.826;6.740;2022-11-15T06:05:02;99606.30;;;11.41;66.63
74722;BME280;63470;49.826;6.740;2022-11-15T06:07:33;99607.91;;;11.41;66.64
74722;BME280;63470;49.826;6.740;2022-11-15T06:10:04;99609.88;;;11.43;66.60
74722;BME280;63470;49.826;6.740;2022-11-15T06:12:34;99611.61;;;11.43;66.55
74722;BME280;63470;49.826;6.740;2022-11-15T06:15:08;99605.88;;;11.41;66.54
74722;BME280;63470;49.826;6.740;2022-11-15T06:17:37;99610.28;;;11.34;66.63
74722;BME280;63470;49.826;6.740;2022-11-15T06:20:06;99607.82;;;11.27;66.73
74722;BME280;63470;49.826;6.740;2022-11-15T06:22:38;99609.89;;;11.22;66.78
74722;BME280;63470;49.826;6.740;2022-11-15T06:25:06;99614.86;;;11.21;66.79
74722;BME280;63470;49.826;6.740;2022-11-15T06:27:39;99615.25;;;11.22;66.80
74722;BME280;63470;49.826;6.740;2022-11-15T06:30:12;99615.74;;;11.28;66.76
74722;BME280;63470;49.826;6.740;2022-11-15T06:32:38;99620.27;;;11.34;66.67
74722;BME280;63470;49.826;6.740;2022-11-15T06:35:09;99621.58;;;11.41;66.55
74722;BME280;63470;49.826;6.740;2022-11-15T06:37:45;99623.98;;;11.49;66.46
74722;BME280;63470;49.826;6.740;2022-11-15T06:40:13;99632.25;;;11.57;66.30
74722;BME280;63470;49.826;6.740;2022-11-15T06:42:43;99634.08;;;11.65;66.24
74722;BME280;63470;49.826;6.740;2022-11-15T06:45:14;99638.08;;;11.70;66.16
74722;BME280;63470;49.826;6.740;2022-11-15T06:47:45;99638.64;;;11.71;66.15
74722;BME280;63470;49.826;6.740;2022-11-15T06:50:12;99638.03;;;11.66;66.19
74722;BME280;63470;49.826;6.740;2022-11-15T06:52:45;99634.35;;;11.58;66.26
74722;BME280;63470;49.826;6.740;2022-11-15T06:55:13;99631.90;;;11.52;66.33
74722;BME280;63470;49.826;6.740;2022-11-15T06:57:51;99630.06;;;11.44;66.44
74722;BME280;63470;49.826;6.740;2022-11-15T07:00:19;99635.78;;;11.37;66.52
74722;BME280;63470;49.826;6.740;2022-11-15T07:02:45;99645.80;;;11.29;66.70
74722;BME280;63470;49.826;6.740;2022-11-15T07:05:18;99643.91;;;11.22;66.80
74722;BME280;63470;49.826;6.740;2022-11-15T07:07:51;99646.45;;;11.15;66.90
74722;BME280;63470;49.826;6.740;2022-11-15T07:10:19;99651.28;;;11.03;67.04
74722;BME280;63470;49.826;6.740;2022-11-15T07:12:47;99646.52;;;10.93;67.15
74722;BME280;63470;49.826;6.740;2022-11-15T07:15:20;99645.62;;;10.84;67.22
74722;BME280;63470;49.826;6.740;2022-11-15T07:17:50;99642.70;;;10.76;67.30
74722;BME280;63470;49.826;6.740;2022-11-15T07:20:21;99647.19;;;10.71;67.37
74722;BME280;63470;49.826;6.740;2022-11-15T07:22:49;99649.48;;;10.66;67.40
74722;BME280;63470;49.826;6.740;2022-11-15T07:25:22;99645.20;;;10.65;67.41
74722;BME280;63470;49.826;6.740;2022-11-15T07:27:59;99647.64;;;10.63;67.41
74722;BME280;63470;49.826;6.740;2022-11-15T07:30:20;99655.44;;;10.62;67.40
74722;BME280;63470;49.826;6.740;2022-11-15T07:32:58;99649.92;;;10.58;67.45
74722;BME280;63470;49.826;6.740;2022-11-15T07:35:24;99656.20;;;10.57;67.45
74722;BME280;63470;49.826;6.740;2022-11-15T07:37:55;99658.50;;;10.61;67.41
74722;BME280;63470;49.826;6.740;2022-11-15T07:40:25;99656.49;;;10.66;67.30
74722;BME280;63470;49.826;6.740;2022-11-15T07:43:04;99653.43;;;10.69;67.18
74722;BME280;63470;49.826;6.740;2022-11-15T07:45:25;99649.41;;;10.72;67.13
74722;BME280;63470;49.826;6.740;2022-11-15T07:47:56;99650.63;;;10.75;67.05
74722;BME280;63470;49.826;6.740;2022-11-15T07:50:26;99650.31;;;10.78;67.00
74722;BME280;63470;49.826;6.740;2022-11-15T07:52:57;99647.32;;;10.82;66.94
74722;BME280;63470;49.826;6.740;2022-11-15T07:55:30;99647.83;;;10.88;66.89
74722;BME280;63470;49.826;6.740;2022-11-15T07:58:00;99653.86;;;10.94;66.85
74722;BME280;63470;49.826;6.740;2022-11-15T08:00:27;99655.27;;;10.99;66.85
74722;BME280;63470;49.826;6.740;2022-11-15T08:03:06;99652.23;;;11.09;66.72
74722;BME280;63470;49.826;6.740;2022-11-15T08:05:31;99646.41;;;11.19;66.54
74722;BME280;63470;49.826;6.740;2022-11-15T08:07:59;99641.38;;;11.30;66.38
74722;BME280;63470;49.826;6.740;2022-11-15T08:10:30;99641.72;;;11.38;66.24
74722;BME280;63470;49.826;6.740;2022-11-15T08:13:03;99636.30;;;11.49;66.17
74722;BME280;63470;49.826;6.740;2022-11-15T08:15:31;99629.50;;;11.60;66.17
74722;BME280;63470;49.826;6.740;2022-11-15T08:18:03;99630.08;;;11.67;66.20
74722;BME280;63470;49.826;6.740;2022-11-15T08:20:32;99624.80;;;11.75;66.20
74722;BME280;63470;49.826;6.740;2022-11-15T08:23:03;99624.42;;;11.87;66.19
74722;BME280;63470;49.826;6.740;2022-11-15T08:25:33;99623.52;;;12.02;65.98
74722;BME280;63470;49.826;6.740;2022-11-15T08:28:04;99628.80;;;12.13;65.81
74722;BME280;63470;49.826;6.740;2022-11-15T08:30:35;99627.66;;;12.23;65.73
74722;BME280;63470;49.826;6.740;2022-11-15T08:33:10;99624.39;;;12.29;65.63
74722;BME280;63470;49.826;6.740;2022-11-15T08:35:38;99625.61;;;12.35;65.69
74722;BME280;63470;49.826;6.740;2022-11-15T08:38:07;99618.59;;;12.40;65.70
74722;BME280;63470;49.826;6.740;2022-11-15T08:40:37;99615.58;;;12.43;65.69
74722;BME280;63470;49.826;6.740;2022-11-15T08:43:05;99616.00;;;12.48;65.71
74722;BME280;63470;49.826;6.740;2022-11-15T08:45:35;99616.17;;;12.57;65.76
74722;BME280;63470;49.826;6.740;2022-11-15T08:48:06;99612.34;;;12.67;65.80
74722;BME280;63470;49.826;6.740;2022-11-15T08:50:36;99612.55;;;12.76;65.77
74722;BME280;63470;49.826;6.740;2022-11-15T08:53:10;99610.31;;;12.85;65.75
74722;BME280;63470;49.826;6.740;2022-11-15T08:55:37;99607.20;;;12.93;65.68
74722;BME280;63470;49.826;6.740;2022-11-15T08:58:09;99610.11;;;12.98;65.64
74722;BME280;63470;49.826;6.740;2022-11-15T09:00:37;99610.52;;;13.06;65.72
74722;BME280;63470;49.826;6.740;2022-11-15T09:03:09;99606.36;;;13.17;65.67
74722;BME280;63470;49.826;6.740;2022-11-15T09:05:38;99604.00;;;13.27;65.65
74722;BME280;63470;49.826;6.740;2022-11-15T09:08:11;99598.59;;;13.41;65.57
74722;BME280;63470;49.826;6.740;2022-11-15T09:10:39;99599.00;;;13.51;65.55
74722;BME280;63470;49.826;6.740;2022-11-15T09:13:10;99596.12;;;13.63;65.51
74722;BME280;63470;49.826;6.740;2022-11-15T09:15:41;99593.33;;;13.73;65.38
74722;BME280;63470;49.826;6.740;2022-11-15T09:18:14;99587.70;;;13.81;65.29
74722;BME280;63470;49.826;6.740;2022-11-15T09:20:45;99587.89;;;13.84;65.27
74722;BME280;63470;49.826;6.740;2022-11-15T09:23:13;99581.42;;;13.86;65.26
74722;BME280;63470;49.826;6.740;2022-11-15T09:25:43;99573.94;;;13.92;65.26
74722;BME280;63470;49.826;6.740;2022-11-15T09:28:14;99569.89;;;14.01;65.20
74722;BME280;63470;49.826;6.740;2022-11-15T09:30:48;99563.84;;;14.15;65.17
74722;BME280;63470;49.826;6.740;2022-11-15T09:33:21;99552.97;;;14.26;65.04
74722;BME280;63470;49.826;6.740;2022-11-15T09:35:51;99545.26;;;14.37;65.00
74722;BME280;63470;49.826;6.740;2022-11-15T09:38:22;99544.23;;;14.57;64.92
74722;BME280;63470;49.826;6.740;2022-11-15T09:40:57;99537.09;;;14.76;64.74
74722;BME280;63470;49.826;6.740;2022-11-15T09:43:44;99536.66;;;14.91;64.64
74722;BME280;63470;49.826;6.740;2022-11-15T09:46:07;99536.87;;;14.99;64.67
74722;BME280;63470;49.826;6.740;2022-11-15T09:50:50;99527.36;;;15.19;64.64
74722;BME280;63470;49.826;6.740;2022-11-15T09:53:27;99524.12;;;15.33;64.41
74722;BME280;63470;49.826;6.740;2022-11-15T09:55:58;99520.20;;;15.38;64.40
74722;BME280;63470;49.826;6.740;2022-11-15T09:58:28;99522.45;;;15.44;64.51
74722;BME280;63470;49.826;6.740;2022-11-15T10:00:53;99522.28;;;15.44;64.64
74722;BME280;63470;49.826;6.740;2022-11-15T10:03:36;99515.23;;;15.43;64.87
74722;BME280;63470;49.826;6.740;2022-11-15T10:05:55;99514.06;;;15.68;64.86
74722;BME280;63470;49.826;6.740;2022-11-15T10:08:58;99516.25;;;16.21;64.43
74722;BME280;63470;49.826;6.740;2022-11-15T10:11:00;99513.95;;;16.56;64.03
74722;BME280;63470;49.826;6.740;2022-11-15T10:13:26;99503.78;;;16.91;63.62
74722;BME280;63470;49.826;6.740;2022-11-15T10:15:55;99498.39;;;17.49;63.12
74722;BME280;63470;49.826;6.740;2022-11-15T10:18:47;99496.11;;;17.79;62.79
74722;BME280;63470;49.826;6.740;2022-11-15T10:21:12;99485.23;;;18.64;61.99
74722;BME280;63470;49.826;6.740;2022-11-15T10:23:24;99476.80;;;19.87;60.32
74722;BME280;63470;49.826;6.740;2022-11-15T10:25:57;99466.91;;;20.98;58.50
74722;BME280;63470;49.826;6.740;2022-11-15T10:28:29;99465.55;;;21.25;57.96
74722;BME280;63470;49.826;6.740;2022-11-15T10:30:57;99460.09;;;21.06;58.56
74722;BME280;63470;49.826;6.740;2022-11-15T10:33:39;99455.48;;;20.57;59.39
74722;BME280;63470;49.826;6.740;2022-11-15T10:36:17;99460.41;;;19.87;60.62
74722;BME280;63470;49.826;6.740;2022-11-15T10:38:26;99456.11;;;19.34;61.50
74722;BME280;63470;49.826;6.740;2022-11-15T10:41:06;99447.69;;;19.16;61.79
74722;BME280;63470;49.826;6.740;2022-11-15T10:43:27;99449.25;;;19.47;61.49
74722;BME280;63470;49.826;6.740;2022-11-15T10:46:16;99444.00;;;19.33;61.51
74722;BME280;63470;49.826;6.740;2022-11-15T10:48:28;99441.44;;;19.08;61.90
74722;BME280;63470;49.826;6.740;2022-11-15T10:50:58;99431.72;;;19.22;61.86
74722;BME280;63470;49.826;6.740;2022-11-15T10:53:38;99422.87;;;19.91;61.01
74722;BME280;63470;49.826;6.740;2022-11-15T10:56:05;99414.78;;;20.87;59.50
74722;BME280;63470;49.826;6.740;2022-11-15T10:58:41;99402.38;;;21.10;59.09
74722;BME280;63470;49.826;6.740;2022-11-15T11:01:10;99399.62;;;21.13;59.24
74722;BME280;63470;49.826;6.740;2022-11-15T11:03:38;99392.33;;;21.21;59.23
74722;BME280;63470;49.826;6.740;2022-11-15T11:06:07;99396.14;;;21.00;59.58
74722;BME280;63470;49.826;6.740;2022-11-15T11:08:33;99398.05;;;20.85;60.00
74722;BME280;63470;49.826;6.740;2022-11-15T11:11:03;99391.52;;;20.95;60.00
74722;BME280;63470;49.826;6.740;2022-11-15T11:13:36;99390.84;;;21.42;59.45
74722;BME280;63470;49.826;6.740;2022-11-15T11:21:08;99377.23;;;21.66;59.00
74722;BME280;63470;49.826;6.740;2022-11-15T11:26:24;99379.00;;;19.87;61.83
74722;BME280;63470;49.826;6.740;2022-11-15T11:31:31;99369.94;;;18.82;63.08
74722;BME280;63470;49.826;6.740;2022-11-15T11:36:39;99359.30;;;18.12;63.81
74722;BME280;63470;49.826;6.740;2022-11-15T11:41:18;99350.56;;;17.84;64.19
74722;BME280;63470;49.826;6.740;2022-11-15T11:43:59;99339.53;;;17.94;64.17
74722;BME280;63470;49.826;6.740;2022-11-15T11:48:47;99341.71;;;18.71;62.92
74722;BME280;63470;49.826;6.740;2022-11-15T11:51:19;99330.16;;;19.26;61.76
74722;BME280;63470;49.826;6.740;2022-11-15T11:56:28;99331.75;;;18.75;62.02
74722;BME280;63470;49.826;6.740;2022-11-15T11:58:45;99325.45;;;18.25;62.85
74722;BME280;63470;49.826;6.740;2022-11-15T12:01:20;99316.27;;;17.88;63.35
74722;BME280;63470;49.826;6.740;2022-11-15T12:03:54;99313.56;;;17.57;63.73
74722;BME280;63470;49.826;6.740;2022-11-15T12:09:12;99308.85;;;17.10;64.26
74722;BME280;63470;49.826;6.740;2022-11-15T12:11:35;99305.52;;;16.97;64.47
74722;BME280;63470;49.826;6.740;2022-11-15T12:13:48;99297.58;;;17.02;64.34
74722;BME280;63470;49.826;6.740;2022-11-15T12:16:21;99286.77;;;17.10;64.18
74722;BME280;63470;49.826;6.740;2022-11-15T12:18:49;99289.11;;;17.14;64.11
74722;BME280;63470;49.826;6.740;2022-11-15T12:23:53;99277.33;;;17.25;63.88
74722;BME280;63470;49.826;6.740;2022-11-15T12:26:22;99268.70;;;17.27;63.92
74722;BME280;63470;49.826;6.740;2022-11-15T12:28:50;99268.51;;;17.31;63.91
74722;BME280;63470;49.826;6.740;2022-11-15T12:31:38;99269.20;;;17.27;63.98
74722;BME280;63470;49.826;6.740;2022-11-15T12:33:48;99259.34;;;17.16;64.15
74722;BME280;63470;49.826;6.740;2022-11-15T12:36:38;99248.30;;;17.08;64.27
74722;BME280;63470;49.826;6.740;2022-11-15T12:39:02;99245.38;;;17.02;64.37
74722;BME280;63470;49.826;6.740;2022-11-15T12:41:20;99242.59;;;17.04;64.38
74722;BME280;63470;49.826;6.740;2022-11-15T12:43:50;99240.14;;;17.11;64.35
74722;BME280;63470;49.826;6.740;2022-11-15T12:46:23;99228.27;;;17.23;64.17
74722;BME280;63470;49.826;6.740;2022-11-15T12:48:55;99229.42;;;17.51;64.11
74722;BME280;63470;49.826;6.740;2022-11-15T12:53:50;99230.39;;;18.18;63.28
74722;BME280;63470;49.826;6.740;2022-11-15T12:56:21;99225.00;;;18.28;63.16
74722;BME280;63470;49.826;6.740;2022-11-15T12:58:54;99227.47;;;18.28;63.17
74722;BME280;63470;49.826;6.740;2022-11-15T13:06:43;99218.42;;;17.79;63.77
74722;BME280;63470;49.826;6.740;2022-11-15T13:08:53;99212.98;;;17.66;64.02
74722;BME280;63470;49.826;6.740;2022-11-15T13:11:42;99214.59;;;17.56;64.22
74722;BME280;63470;49.826;6.740;2022-11-15T13:13:53;99211.23;;;17.47;64.32
74722;BME280;63470;49.826;6.740;2022-11-15T13:16:24;99203.78;;;17.43;64.35
74722;BME280;63470;49.826;6.740;2022-11-15T13:18:59;99195.46;;;17.30;64.38
74722;BME280;63470;49.826;6.740;2022-11-15T13:22:06;99191.64;;;17.19;64.47
74722;BME280;63470;49.826;6.740;2022-11-15T13:23:55;99187.00;;;17.08;64.54
74722;BME280;63470;49.826;6.740;2022-11-15T13:26:26;99179.81;;;17.03;64.62
74722;BME280;63470;49.826;6.740;2022-11-15T13:28:57;99176.77;;;16.94;64.63
74722;BME280;63470;49.826;6.740;2022-11-15T13:31:30;99164.53;;;16.85;64.67
74722;BME280;63470;49.826;6.740;2022-11-15T13:34:02;99165.48;;;16.79;64.76
74722;BME280;63470;49.826;6.740;2022-11-15T13:36:30;99156.41;;;16.76;64.74
74722;BME280;63470;49.826;6.740;2022-11-15T13:39:02;99146.45;;;16.74;64.73
74722;BME280;63470;49.826;6.740;2022-11-15T13:41:32;99144.53;;;16.75;64.69
74722;BME280;63470;49.826;6.740;2022-11-15T13:44:01;99132.05;;;16.79;64.63
74722;BME280;63470;49.826;6.740;2022-11-15T13:46:31;99130.50;;;16.87;64.54
74722;BME280;63470;49.826;6.740;2022-11-15T13:49:05;99129.95;;;16.95;64.46
74722;BME280;63470;49.826;6.740;2022-11-15T13:51:50;99131.05;;;17.01;64.40
74722;BME280;63470;49.826;6.740;2022-11-15T13:54:25;99126.17;;;17.08;64.35
74722;BME280;63470;49.826;6.740;2022-11-15T13:56:32;99120.86;;;17.15;64.30
74722;BME280;63470;49.826;6.740;2022-11-15T13:59:15;99123.27;;;17.21;64.27
74722;BME280;63470;49.826;6.740;2022-11-15T14:01:33;99120.18;;;17.28;64.30
74722;BME280;63470;49.826;6.740;2022-11-15T14:04:04;99116.59;;;17.34;64.29
74722;BME280;63470;49.826;6.740;2022-11-15T14:06:44;99111.48;;;17.38;64.25
74722;BME280;63470;49.826;6.740;2022-11-15T14:11:35;99097.92;;;17.20;64.34
74722;BME280;63470;49.826;6.740;2022-11-15T14:14:13;99094.41;;;17.04;64.57